createdAt,value
2023-04-19T00:01:24.699Z,90.07
2023-04-19T00:08:58.713Z,87.37
2023-04-19T00:16:34.168Z,84.81
2023-04-19T00:24:08.350Z,82.37
2023-04-19T00:31:43.626Z,79.21
2023-04-19T00:39:17.604Z,78.37
2023-04-19T00:46:53.002Z,73.35
2023-04-19T00:54:27.165Z,72.41
2023-04-19T01:02:02.829Z,71.57
2023-04-19T01:09:36.946Z,70.47
2023-04-19T01:17:13.313Z,68.83
2023-04-19T01:24:48.806Z,68.69
2023-04-19T01:32:22.760Z,70.14
2023-04-19T01:39:58.197Z,69.77
2023-04-19T01:47:32.235Z,70.94
2023-04-19T01:55:08.307Z,71.34
2023-04-19T02:10:35.167Z,71.88
2023-04-19T02:18:09.354Z,73.27
2023-04-19T02:25:44.743Z,74.49
2023-04-19T02:33:18.787Z,75.19
2023-04-19T02:40:54.166Z,76.00
2023-04-19T02:48:28.050Z,77.04
2023-04-19T02:56:04.202Z,77.92
2023-04-19T03:03:38.296Z,79.40
2023-04-19T03:11:14.810Z,81.42
2023-04-19T03:18:49.588Z,82.72
2023-04-19T03:26:25.270Z,84.56
2023-04-19T03:33:59.692Z,86.79
2023-04-19T03:41:35.287Z,89.31
2023-04-19T03:49:09.291Z,91.16
2023-04-19T03:56:44.493Z,93.58
2023-04-19T04:04:18.909Z,96.15
2023-04-19T04:11:54.253Z,98.05
2023-04-19T04:19:28.320Z,99.77
2023-04-19T04:27:03.682Z,100.00
2023-04-19T04:34:38.572Z,100.00
2023-04-19T04:42:14.796Z,100.00
2023-04-19T04:49:49.053Z,100.00
2023-04-19T04:57:24.598Z,100.00
2023-04-19T05:04:58.663Z,100.00
2023-04-19T05:12:34.141Z,100.00
2023-04-19T05:20:09.235Z,100.00
2023-04-19T05:28:02.319Z,100.00
2023-04-19T05:35:36.422Z,100.00
2023-04-19T05:43:11.869Z,100.00
2023-04-19T05:50:45.732Z,100.00
2023-04-19T05:58:21.245Z,100.00
2023-04-19T06:05:55.324Z,100.00
2023-04-19T06:21:22.183Z,100.00
2023-04-19T06:28:57.731Z,96.70
2023-04-19T06:36:31.965Z,93.89
2023-04-19T06:44:07.530Z,92.63
2023-04-19T06:51:41.390Z,89.13
2023-04-19T06:59:19.324Z,87.40
2023-04-19T07:06:53.208Z,86.98
2023-04-19T07:14:28.668Z,84.64
2023-04-19T07:22:03.440Z,81.06
2023-04-19T07:29:39.085Z,78.02
2023-04-19T07:37:14.276Z,73.99
2023-04-19T07:44:50.973Z,70.23
2023-04-19T07:52:25.287Z,66.87
2023-04-19T08:00:02.052Z,64.74
2023-04-19T08:07:35.903Z,62.93
2023-04-19T08:15:38.107Z,62.67
2023-04-19T08:23:20.692Z,59.46
2023-04-19T08:31:00.461Z,56.37
2023-04-19T08:38:34.609Z,54.07
2023-04-19T08:46:11.732Z,54.03
2023-04-19T08:53:45.961Z,53.61
2023-04-19T09:16:55.031Z,52.84
2023-04-19T09:25:13.894Z,51.99
2023-04-19T09:32:48.146Z,50.95
2023-04-19T09:40:27.016Z,50.83
2023-04-19T09:48:07.438Z,49.50
2023-04-19T09:55:53.374Z,50.42
2023-04-19T10:03:36.082Z,50.22
2023-04-19T10:11:12.128Z,49.42
2023-04-19T10:18:47.784Z,49.17
2023-04-19T10:26:22.313Z,47.90
2023-04-19T10:33:58.015Z,48.29
2023-04-19T10:41:59.511Z,49.49
2023-04-19T10:49:45.770Z,48.30
2023-04-19T10:57:19.533Z,49.07
2023-04-19T11:05:14.429Z,48.07
2023-04-19T11:12:48.245Z,48.67
2023-04-19T11:20:26.113Z,48.55
2023-04-19T11:28:01.662Z,47.55
2023-04-19T11:35:37.111Z,48.37
2023-04-19T11:43:11.122Z,49.08
2023-04-19T11:57:32.690Z,48.08
2023-04-19T12:05:17.137Z,49.46
2023-04-19T12:12:52.398Z,45.82
2023-04-19T12:20:34.151Z,47.49
2023-04-19T12:28:09.346Z,47.79
2023-04-19T12:35:44.916Z,47.43
2023-04-19T12:43:20.026Z,47.65
2023-04-19T12:50:54.344Z,47.03
2023-04-19T12:58:29.469Z,47.69
2023-04-19T13:06:03.299Z,46.18
2023-04-19T13:13:38.460Z,46.14
2023-04-19T13:21:12.242Z,45.45
2023-04-19T13:28:47.380Z,43.53
2023-04-19T13:36:21.184Z,42.65
2023-04-19T13:43:56.310Z,40.21
2023-04-19T13:51:39.107Z,41.05
2023-04-19T13:59:22.285Z,41.36
2023-04-19T14:06:56.135Z,42.28
2023-04-19T14:14:32.575Z,43.47
2023-04-19T14:22:07.766Z,46.30
2023-04-19T14:29:43.046Z,51.20
2023-04-19T14:37:17.302Z,50.92
2023-04-19T14:44:53.872Z,49.95
2023-04-19T14:52:27.913Z,47.39
2023-04-19T15:00:06.621Z,47.77
2023-04-19T15:07:40.723Z,48.17
2023-04-19T15:15:16.026Z,51.29
2023-04-19T15:22:50.727Z,59.60
2023-04-19T15:30:26.144Z,69.84
2023-04-19T15:38:00.255Z,88.35
2023-04-19T15:45:36.170Z,100.00
2023-04-19T15:53:10.590Z,100.00
2023-04-19T16:00:46.029Z,100.00
2023-04-19T16:08:20.537Z,100.00
2023-04-19T16:15:55.828Z,100.00
2023-04-19T16:23:29.692Z,100.00
2023-04-19T16:31:04.911Z,100.00
2023-04-19T16:38:38.671Z,100.00
2023-04-19T16:46:13.998Z,100.00
2023-04-19T16:53:47.841Z,100.00
2023-04-19T17:01:23.216Z,100.00
2023-04-19T17:08:57.101Z,100.00
2023-04-19T17:16:35.611Z,100.00
2023-04-19T17:24:09.637Z,100.00
2023-04-19T17:31:44.894Z,100.00
2023-04-19T17:39:19.041Z,100.00
2023-04-19T17:46:54.582Z,100.00
2023-04-19T17:54:28.928Z,100.00
2023-04-19T18:02:04.414Z,100.00
2023-04-19T18:09:38.585Z,100.00
2023-04-19T18:17:14.109Z,100.00
2023-04-19T18:24:51.099Z,100.00
2023-04-19T18:32:30.149Z,100.00
2023-04-19T18:40:06.882Z,100.00
2023-04-19T18:47:42.382Z,100.00
2023-04-19T18:55:16.284Z,100.00
2023-04-19T19:02:52.893Z,100.00
2023-04-19T19:18:09.900Z,100.00
2023-04-19T19:25:43.892Z,100.00
2023-04-19T19:33:19.717Z,100.00
2023-04-19T19:41:31.029Z,100.00
2023-04-19T19:48:53.565Z,100.00
2023-04-19T19:56:28.377Z,100.00
2023-04-19T20:04:04.400Z,100.00
2023-04-19T20:11:39.012Z,100.00
2023-04-19T20:19:15.670Z,100.00
2023-04-19T20:26:49.866Z,100.00
2023-04-19T20:34:25.526Z,100.00
2023-04-19T20:41:59.530Z,100.00
2023-04-19T20:49:34.947Z,100.00
2023-04-19T20:57:09.958Z,100.00
2023-04-19T21:04:45.364Z,100.00
2023-04-19T21:12:19.426Z,100.00
2023-04-19T21:19:54.714Z,100.00
2023-04-19T21:27:30.153Z,100.00
2023-04-19T21:35:07.382Z,100.00
2023-04-19T21:42:41.300Z,100.00
2023-04-19T21:50:16.600Z,100.00
2023-04-19T21:57:50.449Z,100.00
2023-04-19T22:05:26.000Z,100.00
2023-04-19T22:13:00.252Z,100.00
2023-04-19T22:28:28.481Z,100.00
2023-04-19T22:36:03.734Z,100.00
2023-04-19T22:43:38.076Z,100.00
2023-04-19T22:51:13.546Z,100.00
2023-04-19T22:58:47.522Z,100.00
2023-04-19T23:06:23.551Z,100.00
2023-04-19T23:13:57.624Z,100.00
2023-04-19T23:21:33.420Z,100.00
2023-04-19T23:29:07.408Z,100.00
2023-04-19T23:36:42.749Z,100.00
2023-04-19T23:44:16.773Z,100.00
2023-04-19T23:51:52.229Z,100.00
2023-04-19T23:59:27.988Z,100.00
